createdAt,value
2023-04-03T00:00:50.558Z,1189.00
2023-04-03T00:01:50.688Z,1162.00
2023-04-03T00:02:50.751Z,1187.00
2023-04-03T00:03:50.721Z,1156.00
2023-04-03T00:04:50.633Z,1197.00
2023-04-03T00:05:50.643Z,1123.00
2023-04-03T00:06:50.753Z,1222.00
2023-04-03T00:07:50.820Z,1173.00
2023-04-03T00:08:50.824Z,1177.00
2023-04-03T00:09:50.857Z,1164.00
2023-04-03T00:10:50.863Z,1175.00
2023-04-03T00:11:50.885Z,1163.00
2023-04-03T00:12:50.893Z,1141.00
2023-04-03T00:13:50.901Z,1143.00
2023-04-03T00:14:50.953Z,1121.00
2023-04-03T00:15:51.040Z,1122.00
2023-04-03T00:16:51.182Z,1186.00
2023-04-03T00:17:51.210Z,1177.00
2023-04-03T00:18:51.156Z,1125.00
2023-04-03T00:19:51.171Z,1147.00
2023-04-03T00:20:51.184Z,1112.00
2023-04-03T00:21:51.238Z,1165.00
2023-04-03T00:22:51.248Z,1198.00
2023-04-03T00:23:51.321Z,1182.00
2023-04-03T00:24:51.424Z,1174.00
2023-04-03T00:25:51.383Z,1170.00
2023-04-03T00:26:51.417Z,1137.00
2023-04-03T00:27:51.469Z,1146.00
2023-04-03T00:28:51.437Z,1167.00
2023-04-03T00:29:51.443Z,1153.00
2023-04-03T00:30:51.492Z,1156.00
2023-04-03T00:31:51.506Z,1170.00
2023-04-03T00:32:51.656Z,1101.00
2023-04-03T00:33:51.681Z,1152.00
2023-04-03T00:34:51.689Z,1147.00
2023-04-03T00:35:51.772Z,1199.00
2023-04-03T00:36:51.850Z,1158.00
2023-04-03T00:37:51.713Z,1121.00
2023-04-03T00:38:51.698Z,1140.00
2023-04-03T00:39:51.725Z,1148.00
2023-04-03T00:40:51.730Z,1150.00
2023-04-03T00:41:51.767Z,1149.00
2023-04-03T00:42:51.804Z,1143.00
2023-04-03T00:43:51.813Z,1139.00
2023-04-03T00:44:51.846Z,1154.00
2023-04-03T00:45:51.894Z,1113.00
2023-04-03T00:46:51.846Z,1086.00
2023-04-03T00:47:51.934Z,1128.00
2023-04-03T00:48:51.997Z,1141.00
2023-04-03T00:49:52.076Z,1165.00
2023-04-03T00:50:52.156Z,1160.00
2023-04-03T00:51:52.196Z,1166.00
2023-04-03T00:52:52.231Z,1122.00
2023-04-03T00:53:52.258Z,1134.00
2023-04-03T00:54:52.292Z,1156.00
2023-04-03T00:55:52.337Z,1155.00
2023-04-03T00:56:52.413Z,1140.00
2023-04-03T00:57:52.396Z,1119.00
2023-04-03T00:58:52.402Z,1140.00
2023-04-03T00:59:52.458Z,1122.00
2023-04-03T01:00:52.474Z,1171.00
2023-04-03T01:01:52.510Z,1182.00
2023-04-03T01:02:52.543Z,1198.00
2023-04-03T01:03:52.575Z,1104.00
2023-04-03T01:04:52.529Z,1156.00
2023-04-03T01:05:52.546Z,1150.00
2023-04-03T01:06:52.598Z,1174.00
2023-04-03T01:07:52.695Z,1203.00
2023-04-03T01:08:52.759Z,1205.00
2023-04-03T01:09:52.858Z,1190.00
2023-04-03T01:10:52.929Z,1219.00
2023-04-03T01:11:53.023Z,1170.00
2023-04-03T01:12:53.039Z,1189.00
2023-04-03T01:13:53.014Z,1193.00
2023-04-03T01:14:53.028Z,1173.00
2023-04-03T01:15:53.044Z,1216.00
2023-04-03T01:16:53.001Z,1188.00
2023-04-03T01:17:53.221Z,1231.00
2023-04-03T01:18:53.178Z,1230.00
2023-04-03T01:19:53.174Z,1246.00
2023-04-03T01:20:53.178Z,1220.00
2023-04-03T01:21:53.184Z,1226.00
2023-04-03T01:22:53.241Z,1216.00
2023-04-03T01:23:53.223Z,1241.00
2023-04-03T01:24:53.215Z,1207.00
2023-04-03T01:25:53.288Z,1176.00
2023-04-03T01:26:53.371Z,1192.00
2023-04-03T01:27:53.477Z,1186.00
2023-04-03T01:28:53.579Z,1212.00
2023-04-03T01:29:53.452Z,1199.00
2023-04-03T01:30:53.463Z,1148.00
2023-04-03T01:31:53.626Z,1173.00
2023-04-03T01:32:53.596Z,1185.00
2023-04-03T01:33:53.628Z,1191.00
2023-04-03T01:34:53.621Z,1184.00
2023-04-03T01:35:53.640Z,1214.00
2023-04-03T01:36:53.625Z,1198.00
2023-04-03T01:37:53.630Z,1165.00
2023-04-03T01:38:53.643Z,1122.00
2023-04-03T01:39:53.654Z,1117.00
2023-04-03T01:40:53.740Z,1204.00
2023-04-03T01:41:53.806Z,1155.00
2023-04-03T01:42:53.786Z,1210.00
2023-04-03T01:43:53.789Z,1165.00
2023-04-03T01:44:53.791Z,1155.00
2023-04-03T01:45:53.870Z,1121.00
2023-04-03T01:46:53.796Z,1147.00
2023-04-03T01:47:53.827Z,1166.00
2023-04-03T01:48:53.845Z,1162.00
2023-04-03T01:49:53.842Z,1172.00
2023-04-03T01:50:53.909Z,1172.00
2023-04-03T01:51:53.921Z,1186.00
2023-04-03T01:52:53.935Z,1200.00
2023-04-03T01:53:53.950Z,1209.00
2023-04-03T01:54:53.993Z,1151.00
2023-04-03T01:55:54.041Z,1134.00
2023-04-03T01:56:54.062Z,1119.00
2023-04-03T01:57:54.067Z,1182.00
2023-04-03T01:58:54.094Z,1162.00
2023-04-03T01:59:54.130Z,1151.00
2023-04-03T02:00:54.188Z,1137.00
2023-04-03T02:01:54.174Z,1179.00
2023-04-03T02:02:54.176Z,1145.00
2023-04-03T02:03:54.206Z,1143.00
2023-04-03T02:04:54.196Z,1161.00
2023-04-03T02:05:54.256Z,1192.00
2023-04-03T02:06:54.259Z,1191.00
2023-04-03T02:07:54.285Z,1172.00
2023-04-03T02:08:54.277Z,1146.00
2023-04-03T02:09:54.294Z,1158.00
2023-04-03T02:10:54.316Z,1190.00
2023-04-03T02:11:54.310Z,1185.00
2023-04-03T02:12:54.350Z,1211.00
2023-04-03T02:13:54.474Z,1221.00
2023-04-03T02:14:54.525Z,1213.00
2023-04-03T02:15:54.632Z,1188.00
2023-04-03T02:16:54.667Z,1191.00
2023-04-03T02:17:55.127Z,1228.00
2023-04-03T02:18:54.627Z,1190.00
2023-04-03T02:19:54.623Z,1203.00
2023-04-03T02:20:54.629Z,1195.00
2023-04-03T02:21:54.647Z,1208.00
2023-04-03T02:22:54.645Z,1183.00
2023-04-03T02:23:54.725Z,1196.00
2023-04-03T02:24:54.708Z,1224.00
2023-04-03T02:25:54.694Z,1184.00
2023-04-03T02:26:54.687Z,1174.00
2023-04-03T02:27:54.704Z,1167.00
2023-04-03T02:28:54.715Z,1213.00
2023-04-03T02:29:54.796Z,1207.00
2023-04-03T02:30:54.926Z,1174.00
2023-04-03T02:31:54.889Z,1142.00
2023-04-03T02:32:54.984Z,1155.00
2023-04-03T02:33:54.900Z,1189.00
2023-04-03T02:34:54.908Z,1181.00
2023-04-03T02:35:55.232Z,1165.00
2023-04-03T02:36:55.113Z,1199.00
2023-04-03T02:37:55.093Z,1203.00
2023-04-03T02:38:55.095Z,1171.00
2023-04-03T02:39:55.100Z,1186.00
2023-04-03T02:40:55.110Z,1167.00
2023-04-03T02:41:55.090Z,1208.00
2023-04-03T02:42:55.170Z,1206.00
2023-04-03T02:43:55.181Z,1175.00
2023-04-03T02:44:55.171Z,1163.00
2023-04-03T02:45:55.241Z,1171.00
2023-04-03T02:46:55.161Z,1167.00
2023-04-03T02:47:55.241Z,1131.00
2023-04-03T02:48:55.219Z,1168.00
2023-04-03T02:49:55.233Z,1187.00
2023-04-03T02:50:55.238Z,1216.00
2023-04-03T02:51:55.251Z,1191.00
2023-04-03T02:52:55.245Z,1180.00
2023-04-03T02:53:55.235Z,1163.00
2023-04-03T02:54:55.323Z,1162.00
2023-04-03T02:55:55.408Z,1190.00
2023-04-03T02:56:55.449Z,1199.00
2023-04-03T02:57:55.417Z,1204.00
2023-04-03T02:58:55.445Z,1160.00
2023-04-03T02:59:55.402Z,1197.00
2023-04-03T03:00:55.467Z,1149.00
2023-04-03T03:01:55.636Z,1170.00
2023-04-03T03:02:55.706Z,1172.00
2023-04-03T03:03:55.663Z,1176.00
2023-04-03T03:04:55.709Z,1166.00
2023-04-03T03:05:55.669Z,1169.00
2023-04-03T03:06:55.691Z,1149.00
2023-04-03T03:07:55.673Z,1187.00
2023-04-03T03:08:55.798Z,1197.00
2023-04-03T03:09:55.782Z,1129.00
2023-04-03T03:10:55.778Z,1183.00
2023-04-03T03:11:55.779Z,1179.00
2023-04-03T03:12:55.781Z,1154.00
2023-04-03T03:13:55.800Z,1185.00
2023-04-03T03:14:55.811Z,1176.00
2023-04-03T03:15:55.828Z,1175.00
2023-04-03T03:16:55.804Z,1220.00
2023-04-03T03:17:55.843Z,1189.00
2023-04-03T03:18:57.228Z,1176.00
2023-04-03T03:19:55.813Z,1160.00
2023-04-03T03:20:55.836Z,1145.00
2023-04-03T03:21:55.854Z,1163.00
2023-04-03T03:22:55.857Z,1150.00
2023-04-03T03:23:55.876Z,1159.00
2023-04-03T03:24:55.995Z,1143.00
2023-04-03T03:25:55.985Z,1157.00
2023-04-03T03:26:56.030Z,1184.00
2023-04-03T03:27:55.982Z,1126.00
2023-04-03T03:28:56.029Z,1133.00
2023-04-03T03:29:56.007Z,1179.00
2023-04-03T03:30:56.005Z,1160.00
2023-04-03T03:31:56.046Z,1165.00
2023-04-03T03:32:56.083Z,1129.00
2023-04-03T03:33:56.022Z,1121.00
2023-04-03T03:34:56.048Z,1135.00
2023-04-03T03:35:56.169Z,1119.00
2023-04-03T03:36:56.159Z,1123.00
2023-04-03T03:37:56.143Z,1147.00
2023-04-03T03:38:56.165Z,1142.00
2023-04-03T03:39:56.180Z,1139.00
2023-04-03T03:40:56.179Z,1133.00
2023-04-03T03:41:56.264Z,1132.00
2023-04-03T03:42:56.283Z,1084.00
2023-04-03T03:43:56.269Z,1106.00
2023-04-03T03:44:56.285Z,1126.00
2023-04-03T03:45:56.292Z,1141.00
2023-04-03T03:46:56.347Z,1119.00
2023-04-03T03:47:56.452Z,1118.00
2023-04-03T03:48:56.553Z,1108.00
2023-04-03T03:49:56.556Z,1123.00
2023-04-03T03:50:56.548Z,1086.00
2023-04-03T03:51:56.559Z,1107.00
2023-04-03T03:52:56.586Z,1086.00
2023-04-03T03:53:56.604Z,1131.00
2023-04-03T03:54:56.595Z,1123.00
2023-04-03T03:55:56.626Z,1110.00
2023-04-03T03:56:56.653Z,1126.00
2023-04-03T03:57:56.630Z,1125.00
2023-04-03T03:58:56.639Z,1123.00
2023-04-03T03:59:56.720Z,1119.00
2023-04-03T04:00:56.856Z,1115.00
2023-04-03T04:01:56.878Z,1109.00
2023-04-03T04:02:58.650Z,1075.00
2023-04-03T04:03:56.992Z,1102.00
2023-04-03T04:04:56.962Z,1100.00
2023-04-03T04:05:56.925Z,1089.00
2023-04-03T04:06:56.946Z,1050.00
2023-04-03T04:07:57.092Z,1090.00
2023-04-03T04:08:57.053Z,1103.00
2023-04-03T04:09:57.069Z,1101.00
2023-04-03T04:10:57.111Z,1076.00
2023-04-03T04:11:57.098Z,1115.00
2023-04-03T04:12:58.622Z,1117.00
2023-04-03T04:13:57.142Z,1126.00
2023-04-03T04:14:57.155Z,1124.00
2023-04-03T04:15:57.144Z,1132.00
2023-04-03T04:16:57.207Z,1145.00
2023-04-03T04:17:57.185Z,1127.00
2023-04-03T04:18:57.174Z,1159.00
2023-04-03T04:19:57.185Z,1116.00
2023-04-03T04:20:57.202Z,1120.00
2023-04-03T04:21:57.198Z,1108.00
2023-04-03T04:22:57.209Z,1090.00
2023-04-03T04:23:57.218Z,1083.00
2023-04-03T04:24:57.246Z,1101.00
2023-04-03T04:25:57.217Z,1063.00
2023-04-03T04:26:57.276Z,1055.00
2023-04-03T04:27:57.266Z,989.00
2023-04-03T04:28:57.339Z,1007.00
2023-04-03T04:29:59.252Z,1047.00
2023-04-03T04:30:57.411Z,1057.00
2023-04-03T04:31:57.370Z,1041.00
2023-04-03T04:32:57.432Z,931.00
2023-04-03T04:33:57.433Z,992.00
2023-04-03T04:34:57.563Z,1028.00
2023-04-03T04:35:57.730Z,988.00
2023-04-03T04:36:57.918Z,1001.00
2023-04-03T04:37:57.758Z,985.00
2023-04-03T04:38:57.755Z,1033.00
2023-04-03T04:39:57.801Z,1028.00
2023-04-03T04:40:57.844Z,995.00
2023-04-03T04:41:57.813Z,1055.00
2023-04-03T04:42:57.806Z,1051.00
2023-04-03T04:43:57.832Z,1025.00
2023-04-03T04:44:57.867Z,990.00
2023-04-03T04:45:57.938Z,1015.00
2023-04-03T04:46:57.877Z,1036.00
2023-04-03T04:47:57.912Z,1027.00
2023-04-03T04:48:57.906Z,1035.00
2023-04-03T04:49:57.895Z,1020.00
2023-04-03T04:50:57.923Z,1026.00
2023-04-03T04:51:57.939Z,985.00
2023-04-03T04:52:57.941Z,1002.00
2023-04-03T04:53:58.046Z,1011.00
2023-04-03T04:54:58.103Z,1010.00
2023-04-03T04:55:58.235Z,1004.00
2023-04-03T04:56:58.105Z,1050.00
2023-04-03T04:57:58.092Z,1033.00
2023-04-03T04:58:58.157Z,1067.00
2023-04-03T04:59:58.236Z,1048.00
2023-04-03T05:00:58.300Z,1089.00
2023-04-03T05:01:58.390Z,1043.00
2023-04-03T05:02:58.315Z,1027.00
2023-04-03T05:03:58.328Z,1046.00
2023-04-03T05:04:58.449Z,1017.00
2023-04-03T05:05:58.378Z,996.00
2023-04-03T05:06:58.387Z,1040.00
2023-04-03T05:07:58.414Z,1059.00
2023-04-03T05:08:58.408Z,1026.00
2023-04-03T05:09:58.400Z,1011.00
2023-04-03T05:10:58.445Z,969.00
2023-04-03T05:11:58.459Z,1017.00
2023-04-03T05:12:58.477Z,977.00
2023-04-03T05:13:58.489Z,1014.00
2023-04-03T05:14:58.500Z,988.00
2023-04-03T05:15:58.611Z,1013.00
2023-04-03T05:16:58.640Z,975.00
2023-04-03T05:17:58.676Z,1048.00
2023-04-03T05:18:58.656Z,985.00
2023-04-03T05:19:58.666Z,992.00
2023-04-03T05:20:58.682Z,996.00
2023-04-03T05:21:58.701Z,996.00
2023-04-03T05:22:58.715Z,972.00
2023-04-03T05:23:58.721Z,1012.00
2023-04-03T05:24:58.721Z,1015.00
2023-04-03T05:25:58.750Z,980.00
2023-04-03T05:26:58.851Z,1023.00
2023-04-03T05:27:58.870Z,1051.00
2023-04-03T05:28:58.910Z,1021.00
2023-04-03T05:29:58.908Z,990.00
2023-04-03T05:30:58.919Z,1005.00
2023-04-03T05:31:58.955Z,1034.00
2023-04-03T05:32:59.064Z,1029.00
2023-04-03T05:33:59.173Z,1004.00
2023-04-03T05:35:01.214Z,1001.00
2023-04-03T05:35:59.143Z,1003.00
2023-04-03T05:36:59.168Z,1031.00
2023-04-03T05:37:59.284Z,1046.00
2023-04-03T05:38:59.266Z,991.00
2023-04-03T05:39:59.286Z,1025.00
2023-04-03T05:40:59.300Z,1034.00
2023-04-03T05:41:59.302Z,1034.00
2023-04-03T05:42:59.324Z,1031.00
2023-04-03T05:43:59.335Z,1033.00
2023-04-03T05:44:59.336Z,1078.00
2023-04-03T05:45:59.346Z,995.00
2023-04-03T05:46:59.336Z,1025.00
2023-04-03T05:47:59.408Z,982.00
2023-04-03T05:48:59.380Z,1031.00
2023-04-03T05:49:59.370Z,1078.00
2023-04-03T05:50:59.388Z,1041.00
2023-04-03T05:51:59.486Z,1044.00
2023-04-03T05:52:59.488Z,1024.00
2023-04-03T05:53:59.520Z,1074.00
2023-04-03T05:54:59.523Z,1105.00
2023-04-03T05:55:59.526Z,1061.00
2023-04-03T05:56:59.591Z,1060.00
2023-04-03T05:57:59.622Z,1083.00
2023-04-03T05:58:59.648Z,1051.00
2023-04-03T05:59:59.669Z,1074.00
2023-04-03T06:00:59.668Z,1094.00
2023-04-03T06:01:59.678Z,1050.00
2023-04-03T06:02:59.848Z,1033.00
2023-04-03T06:03:59.958Z,1050.00
2023-04-03T06:04:59.736Z,1063.00
2023-04-03T06:05:59.726Z,1057.00
2023-04-03T06:06:59.730Z,1097.00
2023-04-03T06:07:59.732Z,1053.00
2023-04-03T06:09:00.742Z,1028.00
2023-04-03T06:09:59.751Z,1061.00
2023-04-03T06:10:59.766Z,1033.00
2023-04-03T06:11:59.774Z,1066.00
2023-04-03T06:12:59.771Z,1076.00
2023-04-03T06:13:59.790Z,1107.00
2023-04-03T06:14:59.892Z,1110.00
2023-04-03T06:15:59.994Z,1039.00
2023-04-03T06:17:00.154Z,1028.00
2023-04-03T06:18:00.234Z,1052.00
2023-04-03T06:19:00.117Z,1054.00
2023-04-03T06:20:00.127Z,1068.00
2023-04-03T06:21:00.164Z,1047.00
2023-04-03T06:22:00.164Z,1085.00
2023-04-03T06:23:00.196Z,1097.00
2023-04-03T06:24:00.233Z,1049.00
2023-04-03T06:25:00.465Z,1093.00
2023-04-03T06:26:00.220Z,1051.00
2023-04-03T06:27:00.225Z,1028.00
2023-04-03T06:28:00.219Z,1060.00
2023-04-03T06:29:00.234Z,1041.00
2023-04-03T06:30:00.283Z,1095.00
2023-04-03T06:31:00.390Z,1038.00
2023-04-03T06:32:00.352Z,1049.00
2023-04-03T06:33:00.471Z,1024.00
2023-04-03T06:34:00.371Z,1050.00
2023-04-03T06:35:00.367Z,1071.00
2023-04-03T06:36:00.439Z,1052.00
2023-04-03T06:37:00.411Z,1055.00
2023-04-03T06:38:00.418Z,1075.00
2023-04-03T06:39:00.559Z,1058.00
2023-04-03T06:40:00.418Z,1048.00
2023-04-03T06:41:00.504Z,1106.00
2023-04-03T06:42:00.500Z,1035.00
2023-04-03T06:43:00.523Z,1045.00
2023-04-03T06:44:00.501Z,1076.00
2023-04-03T06:45:00.519Z,1073.00
2023-04-03T06:46:00.520Z,1081.00
2023-04-03T06:47:00.598Z,1095.00
2023-04-03T06:48:00.635Z,1059.00
2023-04-03T06:49:00.592Z,1053.00
2023-04-03T06:50:00.573Z,1073.00
2023-04-03T06:51:00.575Z,1097.00
2023-04-03T06:52:02.412Z,1078.00
2023-04-03T06:53:00.584Z,1084.00
2023-04-03T06:54:00.589Z,1042.00
2023-04-03T06:55:00.693Z,1083.00
2023-04-03T06:56:00.627Z,1097.00
2023-04-03T06:57:00.780Z,1088.00
2023-04-03T06:58:00.734Z,1118.00
2023-04-03T06:59:00.759Z,1058.00
2023-04-03T07:00:00.732Z,1108.00
2023-04-03T07:01:00.719Z,1103.00
2023-04-03T07:02:00.759Z,1103.00
2023-04-03T07:03:00.875Z,1108.00
2023-04-03T07:04:00.896Z,1120.00
2023-04-03T07:05:00.998Z,1130.00
2023-04-03T07:06:01.002Z,1146.00
2023-04-03T07:07:01.160Z,1150.00
2023-04-03T07:08:00.985Z,1142.00
2023-04-03T07:09:00.999Z,1132.00
2023-04-03T07:10:01.011Z,1120.00
2023-04-03T07:11:01.002Z,1142.00
2023-04-03T07:12:01.009Z,1107.00
2023-04-03T07:13:01.005Z,1136.00
2023-04-03T07:14:00.989Z,1114.00
2023-04-03T07:15:00.997Z,1116.00
2023-04-03T07:16:01.135Z,1120.00
2023-04-03T07:17:01.175Z,1109.00
2023-04-03T07:18:01.300Z,1104.00
2023-04-03T07:19:01.257Z,1123.00
2023-04-03T07:20:01.288Z,1114.00
2023-04-03T07:21:01.312Z,1122.00
2023-04-03T07:22:01.236Z,1097.00
2023-04-03T07:23:02.791Z,1092.00
2023-04-03T07:24:01.240Z,1107.00
2023-04-03T07:25:01.253Z,1097.00
2023-04-03T07:26:01.325Z,1079.00
2023-04-03T07:27:01.452Z,1101.00
2023-04-03T07:28:01.437Z,1123.00
2023-04-03T07:29:01.446Z,1134.00
2023-04-03T07:30:01.459Z,1137.00
2023-04-03T07:31:01.441Z,1149.00
2023-04-03T07:32:01.529Z,1107.00
2023-04-03T07:33:01.511Z,1096.00
2023-04-03T07:34:01.542Z,1097.00
2023-04-03T07:35:02.457Z,1071.00
2023-04-03T07:36:01.557Z,1092.00
2023-04-03T07:37:01.504Z,1090.00
2023-04-03T07:38:01.474Z,1080.00
2023-04-03T07:39:01.473Z,1078.00
2023-04-03T07:40:01.539Z,1065.00
2023-04-03T07:41:01.658Z,1083.00
2023-04-03T07:42:01.627Z,1051.00
2023-04-03T07:43:01.642Z,1124.00
2023-04-03T07:44:01.667Z,1098.00
2023-04-03T07:45:01.674Z,1113.00
2023-04-03T07:46:01.737Z,1114.00
2023-04-03T07:47:01.692Z,1060.00
2023-04-03T07:48:01.781Z,1125.00
2023-04-03T07:49:01.849Z,1035.00
2023-04-03T07:50:01.841Z,1084.00
2023-04-03T07:51:01.843Z,1079.00
2023-04-03T07:52:01.844Z,1104.00
2023-04-03T07:53:01.894Z,1044.00
2023-04-03T07:54:01.884Z,1047.00
2023-04-03T07:55:01.953Z,1084.00
2023-04-03T07:56:01.958Z,1073.00
2023-04-03T07:57:02.001Z,1088.00
2023-04-03T07:58:01.979Z,1061.00
2023-04-03T07:59:02.019Z,1095.00
2023-04-03T08:00:02.087Z,1090.00
2023-04-03T08:01:02.090Z,1063.00
2023-04-03T08:02:02.124Z,1098.00
2023-04-03T08:03:02.260Z,1106.00
2023-04-03T08:04:02.357Z,1094.00
2023-04-03T08:05:02.319Z,1123.00
2023-04-03T08:06:02.309Z,1127.00
2023-04-03T08:07:02.357Z,1097.00
2023-04-03T08:08:02.392Z,1091.00
2023-04-03T08:09:02.409Z,1082.00
2023-04-03T08:10:02.465Z,1091.00
2023-04-03T08:11:02.504Z,1111.00
2023-04-03T08:12:02.554Z,1127.00
2023-04-03T08:13:02.668Z,1137.00
2023-04-03T08:14:02.689Z,1137.00
2023-04-03T08:15:02.733Z,1147.00
2023-04-03T08:16:02.801Z,1140.00
2023-04-03T08:17:02.834Z,1126.00
2023-04-03T08:18:02.966Z,1122.00
2023-04-03T08:19:05.217Z,1156.00
2023-04-03T08:20:02.915Z,1130.00
2023-04-03T08:21:02.914Z,1133.00
2023-04-03T08:22:02.909Z,1159.00
2023-04-03T08:23:02.909Z,1153.00
2023-04-03T08:24:02.887Z,1113.00
2023-04-03T08:25:02.908Z,1107.00
2023-04-03T08:26:02.881Z,1125.00
2023-04-03T08:27:02.890Z,1146.00
2023-04-03T08:28:02.867Z,1124.00
2023-04-03T08:29:02.890Z,1118.00
2023-04-03T08:30:02.838Z,1146.00
2023-04-03T08:31:02.858Z,1177.00
2023-04-03T08:32:02.832Z,1209.00
2023-04-03T08:33:02.855Z,1185.00
2023-04-03T08:34:02.821Z,1170.00
2023-04-03T08:35:02.828Z,1217.00
2023-04-03T08:36:02.890Z,1210.00
2023-04-03T08:37:02.918Z,1214.00
2023-04-03T08:38:02.975Z,1169.00
2023-04-03T08:39:03.009Z,1145.00
2023-04-03T08:40:03.069Z,1158.00
2023-04-03T08:41:03.118Z,1136.00
2023-04-03T08:42:03.181Z,1199.00
2023-04-03T08:43:03.318Z,1240.00
2023-04-03T08:44:03.281Z,1194.00
2023-04-03T08:45:03.306Z,1239.00
2023-04-03T08:46:03.408Z,1251.00
2023-04-03T08:47:03.402Z,1217.00
2023-04-03T08:48:03.526Z,1242.00
2023-04-03T08:49:03.632Z,1287.00
2023-04-03T08:50:03.533Z,1227.00
2023-04-03T08:51:03.943Z,1285.00
2023-04-03T08:52:03.644Z,1240.00
2023-04-03T08:53:03.647Z,1191.00
2023-04-03T08:54:03.677Z,1208.00
2023-04-03T08:55:03.678Z,1145.00
2023-04-03T08:56:03.720Z,1086.00
2023-04-03T08:57:03.743Z,1155.00
2023-04-03T08:58:03.757Z,1116.00
2023-04-03T08:59:03.845Z,1096.00
2023-04-03T09:00:03.806Z,1112.00
2023-04-03T09:01:03.806Z,1107.00
2023-04-03T09:02:03.862Z,1083.00
2023-04-03T09:03:03.941Z,1037.00
2023-04-03T09:04:03.895Z,1002.00
2023-04-03T09:05:03.881Z,989.00
2023-04-03T09:06:03.920Z,1002.00
2023-04-03T09:07:03.924Z,990.00
2023-04-03T09:08:03.944Z,1024.00
2023-04-03T09:09:03.965Z,1006.00
2023-04-03T09:10:04.037Z,1004.00
2023-04-03T09:11:04.005Z,974.00
2023-04-03T09:12:04.023Z,1001.00
2023-04-03T09:13:04.056Z,1010.00
2023-04-03T09:14:04.120Z,1007.00
2023-04-03T09:15:04.202Z,1001.00
2023-04-03T09:16:04.144Z,983.00
2023-04-03T09:17:04.144Z,980.00
2023-04-03T09:18:04.182Z,961.00
2023-04-03T09:19:04.144Z,974.00
2023-04-03T09:20:04.171Z,970.00
2023-04-03T09:21:04.171Z,929.00
2023-04-03T09:22:04.171Z,934.00
2023-04-03T09:23:04.177Z,950.00
2023-04-03T09:24:04.152Z,960.00
2023-04-03T09:25:04.177Z,964.00
2023-04-03T09:26:04.216Z,939.00
2023-04-03T09:27:04.227Z,990.00
2023-04-03T09:28:04.251Z,953.00
2023-04-03T09:29:04.248Z,982.00
2023-04-03T09:30:04.256Z,966.00
2023-04-03T09:31:04.410Z,969.00
2023-04-03T09:32:04.253Z,966.00
2023-04-03T09:33:04.297Z,910.00
2023-04-03T09:34:04.260Z,947.00
2023-04-03T09:35:16.882Z,980.00
2023-04-03T09:36:05.237Z,980.00
2023-04-03T09:37:04.241Z,981.00
2023-04-03T09:38:04.230Z,966.00
2023-04-03T09:39:04.210Z,938.00
2023-04-03T09:40:04.180Z,930.00
2023-04-03T09:41:04.181Z,907.00
2023-04-03T09:42:04.185Z,939.00
2023-04-03T09:43:04.160Z,951.00
2023-04-03T09:44:04.167Z,978.00
2023-04-03T09:45:04.154Z,930.00
2023-04-03T09:46:04.147Z,938.00
2023-04-03T09:47:04.273Z,922.00
2023-04-03T09:48:05.517Z,919.00
2023-04-03T09:49:09.346Z,931.00
2023-04-03T09:50:05.310Z,931.00
2023-04-03T09:51:04.297Z,935.00
2023-04-03T09:52:04.300Z,942.00
2023-04-03T09:53:04.298Z,971.00
2023-04-03T09:54:04.276Z,933.00
2023-04-03T09:55:04.296Z,958.00
2023-04-03T09:56:04.282Z,939.00
2023-04-03T09:57:04.303Z,904.00
2023-04-03T09:58:04.308Z,918.00
2023-04-03T09:59:04.236Z,882.00
2023-04-03T10:00:04.247Z,851.00
2023-04-03T10:01:04.252Z,882.00
2023-04-03T10:02:04.240Z,881.00
2023-04-03T10:03:04.406Z,885.00
2023-04-03T10:04:04.359Z,936.00
2023-04-03T10:06:04.382Z,859.00
2023-04-03T10:07:04.385Z,904.00
2023-04-03T10:08:04.363Z,973.00
2023-04-03T10:09:04.362Z,917.00
2023-04-03T10:10:04.347Z,900.00
2023-04-03T10:11:04.349Z,896.00
2023-04-03T10:12:04.336Z,926.00
2023-04-03T10:13:04.336Z,941.00
2023-04-03T10:14:04.331Z,1002.00
2023-04-03T10:15:04.321Z,1010.00
2023-04-03T10:16:04.294Z,1023.00
2023-04-03T10:17:04.353Z,974.00
2023-04-03T10:18:14.329Z,986.00
2023-04-03T10:19:05.389Z,981.00
2023-04-03T10:20:04.272Z,947.00
2023-04-03T10:21:06.096Z,936.00
2023-04-03T10:22:04.253Z,941.00
2023-04-03T10:23:04.266Z,936.00
2023-04-03T10:24:04.269Z,929.00
2023-04-03T10:25:04.236Z,929.00
2023-04-03T10:26:04.234Z,926.00
2023-04-03T10:27:04.217Z,887.00
2023-04-03T10:28:04.226Z,910.00
2023-04-03T10:29:04.268Z,960.00
2023-04-03T10:30:04.191Z,929.00
2023-04-03T10:31:04.185Z,834.00
2023-04-03T10:32:04.216Z,909.00
2023-04-03T10:33:04.230Z,951.00
2023-04-03T10:34:04.175Z,901.00
2023-04-03T10:35:05.338Z,974.00
2023-04-03T10:36:04.216Z,852.00
2023-04-03T10:37:04.140Z,894.00
2023-04-03T10:38:04.156Z,789.00
2023-04-03T10:39:04.136Z,872.00
2023-04-03T10:40:04.143Z,963.00
2023-04-03T10:41:04.112Z,695.00
2023-04-03T10:42:13.310Z,757.00
2023-04-03T10:43:05.124Z,738.00
2023-04-03T10:44:04.131Z,786.00
2023-04-03T10:45:04.109Z,808.00
2023-04-03T10:46:04.115Z,887.00
2023-04-03T10:47:04.072Z,786.00
2023-04-03T10:48:04.146Z,839.00
2023-04-03T10:49:04.069Z,897.00
2023-04-03T10:50:04.058Z,817.00
2023-04-03T10:51:04.112Z,651.00
2023-04-03T10:52:04.038Z,689.00
2023-04-03T10:53:04.029Z,665.00
2023-04-03T10:54:04.046Z,702.00
2023-04-03T10:55:04.087Z,906.00
2023-04-03T10:56:04.022Z,1008.00
2023-04-03T10:57:11.846Z,830.00
2023-04-03T10:58:05.010Z,831.00
2023-04-03T10:59:04.009Z,832.00
2023-04-03T11:00:04.016Z,879.00
2023-04-03T11:01:04.002Z,903.00
2023-04-03T11:02:04.005Z,935.00
2023-04-03T11:03:04.049Z,944.00
2023-04-03T11:04:04.143Z,1043.00
2023-04-03T11:05:03.952Z,1030.00
2023-04-03T11:06:03.945Z,1057.00
2023-04-03T11:07:04.010Z,1108.00
2023-04-03T11:08:03.985Z,1160.00
2023-04-03T11:09:03.914Z,1120.00
2023-04-03T11:10:03.908Z,1048.00
2023-04-03T11:11:03.907Z,794.00
2023-04-03T11:12:03.901Z,630.00
2023-04-03T11:13:03.897Z,585.00
2023-04-03T11:14:03.956Z,582.00
2023-04-03T11:15:03.887Z,582.00
2023-04-03T11:16:03.920Z,629.00
2023-04-03T11:17:03.854Z,607.00
2023-04-03T11:18:03.914Z,626.00
2023-04-03T11:19:03.842Z,623.00
2023-04-03T11:20:03.895Z,850.00
2023-04-03T11:21:03.824Z,1061.00
2023-04-03T11:22:03.815Z,1108.00
2023-04-03T11:23:03.883Z,1244.00
2023-04-03T11:24:03.809Z,1364.00
2023-04-03T11:25:03.805Z,1379.00
2023-04-03T11:26:03.804Z,1463.00
2023-04-03T11:27:03.841Z,1497.00
2023-04-03T11:28:03.795Z,1513.00
2023-04-03T11:29:03.839Z,1532.00
2023-04-03T11:30:03.808Z,1542.00
2023-04-03T11:31:03.856Z,1517.00
2023-04-03T11:32:03.802Z,1530.00
2023-04-03T11:33:03.836Z,1559.00
2023-04-03T11:34:03.807Z,1553.00
2023-04-03T11:35:03.811Z,1542.00
2023-04-03T11:36:09.700Z,1524.00
2023-04-03T11:37:04.800Z,1524.00
2023-04-03T11:38:03.822Z,1501.00
2023-04-03T11:39:03.864Z,1503.00
2023-04-03T11:40:03.789Z,1488.00
2023-04-03T11:41:03.779Z,1475.00
2023-04-03T11:42:12.899Z,1432.00
2023-04-03T11:43:04.757Z,1432.00
2023-04-03T11:44:03.775Z,1425.00
2023-04-03T11:45:03.752Z,1403.00
2023-04-03T11:46:03.754Z,1368.00
2023-04-03T11:47:03.760Z,1422.00
2023-04-03T11:48:13.005Z,1424.00
2023-04-03T11:49:04.727Z,1425.00
2023-04-03T11:50:03.694Z,1409.00
2023-04-03T11:51:03.686Z,1344.00
2023-04-03T11:52:03.671Z,1296.00
2023-04-03T11:53:03.671Z,1312.00
2023-04-03T11:54:03.677Z,1312.00
2023-04-03T11:55:03.738Z,1276.00
2023-04-03T11:56:03.641Z,1290.00
2023-04-03T11:57:03.717Z,1289.00
2023-04-03T11:58:03.641Z,1276.00
2023-04-03T11:59:03.634Z,1267.00
2023-04-03T12:00:03.628Z,1191.00
2023-04-03T12:01:03.648Z,1180.00
2023-04-03T12:02:03.668Z,1165.00
2023-04-03T12:03:03.695Z,1131.00
2023-04-03T12:04:03.763Z,1145.00
2023-04-03T12:05:03.563Z,1124.00
2023-04-03T12:06:03.573Z,1067.00
2023-04-03T12:07:03.584Z,1107.00
2023-04-03T12:08:03.602Z,1099.00
2023-04-03T12:09:03.601Z,1121.00
2023-04-03T12:10:03.629Z,1038.00
2023-04-03T12:11:03.720Z,1046.00
2023-04-03T12:12:03.637Z,1113.00